Time;durP1;ratioP1;P1;durP2;ratioP2;P2;SDS_P1;SDS_P2;PMS_P1;PMS_P2;Temp;Humidity;BMP_temperature;BMP_pressure;BME280_temperature;BME280_humidity;BME280_pressure;Samples;Min_cycle;Max_cycle;Signal;HPM_P1;HPM_P2
2023/08/16 00:08:12;;;;;;;6.55;5.35;;;;;;;25.98;53.85;100705.72;20994761;28;20154;-59
2023/08/16 00:18:14;;;;;;;6.50;5.47;;;;;;;25.85;53.81;100696.25;20994194;28;20098;-60
2023/08/16 00:28:15;;;;;;;5.70;4.90;;;;;;;26.00;53.94;100706.25;20993390;28;20396;-59
2023/08/16 00:38:16;;;;;;;5.68;5.07;;;;;;;25.94;53.45;100732.75;20993600;28;20040;-59
2023/08/16 00:48:18;;;;;;;5.13;4.63;;;;;;;25.89;53.42;100749.69;20993042;28;20036;-59
2023/08/16 00:58:20;;;;;;;7.00;4.80;;;;;;;25.88;53.17;100784.47;20992532;28;20029;-59
2023/08/16 01:08:21;;;;;;;4.78;4.38;;;;;;;25.91;53.33;100797.88;21052339;28;20082;-59
2023/08/16 01:18:25;;;;;;;4.68;4.10;;;;;;;25.85;53.43;100820.44;21068597;28;20044;-61
2023/08/16 01:28:28;;;;;;;4.97;4.47;;;;;;;25.70;53.63;100803.94;21075715;28;20047;-60
2023/08/16 01:38:30;;;;;;;5.28;4.78;;;;;;;25.83;53.29;100817.09;21074640;28;20098;-60
2023/08/16 01:48:36;;;;;;;6.03;4.85;;;;;;;25.75;53.41;100817.84;21059757;28;20044;-59
2023/08/16 01:58:37;;;;;;;5.22;4.75;;;;;;;25.80;53.60;100834.56;21014747;28;20037;-59
2023/08/16 02:08:39;;;;;;;6.15;5.40;;;;;;;25.76;53.22;100827.13;21035861;28;20093;-59
2023/08/16 02:18:40;;;;;;;6.43;5.80;;;;;;;25.80;53.29;100836.53;21032629;28;20035;-59
2023/08/16 02:28:41;;;;;;;5.78;5.28;;;;;;;25.69;53.26;100802.28;21086433;28;20114;-59
2023/08/16 02:38:43;;;;;;;6.72;6.05;;;;;;;25.73;53.36;100800.50;21086230;28;20044;-60
2023/08/16 02:48:44;;;;;;;7.03;6.30;;;;;;;25.72;53.28;100798.84;21085566;28;20031;-60
2023/08/16 02:58:45;;;;;;;8.43;6.50;;;;;;;25.72;53.01;100810.06;21085682;28;20094;-61
2023/08/16 03:08:47;;;;;;;7.63;6.68;;;;;;;25.69;53.13;100833.09;21081372;28;20089;-59
2023/08/16 03:18:48;;;;;;;7.93;6.45;;;;;;;25.67;52.99;100857.81;21080252;28;20078;-60
2023/08/16 03:28:52;;;;;;;8.20;7.10;;;;;;;25.62;52.59;100849.53;21064481;28;20020;-59
2023/08/16 03:38:59;;;;;;;6.82;6.10;;;;;;;25.64;52.67;100858.44;21081503;28;20051;-60
2023/08/16 03:49:00;;;;;;;7.23;6.53;;;;;;;25.56;52.37;100851.59;21075619;28;20499;-59
2023/08/16 03:59:01;;;;;;;8.40;6.05;;;;;;;25.56;52.23;100850.78;21080289;28;20101;-61
2023/08/16 04:09:04;;;;;;;6.88;5.95;;;;;;;25.46;50.86;100857.44;21044867;28;20530;-60
2023/08/16 04:19:05;;;;;;;6.95;6.13;;;;;;;25.35;50.60;100867.22;21077876;28;20094;-60
2023/08/16 04:29:07;;;;;;;6.25;5.65;;;;;;;25.30;49.66;100870.97;21077051;28;20484;-59
2023/08/16 04:39:08;;;;;;;5.93;5.32;;;;;;;25.23;48.95;100848.13;21075721;28;20040;-59
2023/08/16 04:49:09;;;;;;;6.15;4.97;;;;;;;25.20;53.30;100862.78;21066431;28;20044;-60
2023/08/16 04:59:11;;;;;;;6.90;5.80;;;;;;;25.58;56.01;100876.53;21067585;28;20044;-60
2023/08/16 05:09:12;;;;;;;7.07;5.95;;;;;;;25.84;56.36;100886.06;21068184;28;20499;-60
2023/08/16 05:19:14;;;;;;;5.72;5.13;;;;;;;26.03;56.27;100859.81;21059295;28;20093;-58
2023/08/16 05:29:15;;;;;;;6.93;6.32;;;;;;;26.16;55.80;100863.69;21074721;28;20093;-59
2023/08/16 05:39:17;;;;;;;7.35;5.80;;;;;;;26.28;55.29;100845.16;21081612;28;20101;-59
2023/08/16 05:49:18;;;;;;;5.78;5.28;;;;;;;26.43;55.30;100845.91;21088001;28;20043;-60
2023/08/16 05:59:22;;;;;;;9.25;5.55;;;;;;;26.54;55.10;100852.94;21089633;28;20031;-59
2023/08/16 06:09:24;;;;;;;6.93;5.82;;;;;;;26.61;55.37;100858.91;21087532;28;20051;-58
2023/08/16 06:19:25;;;;;;;7.90;6.68;;;;;;;26.71;55.32;100860.59;21087883;28;20032;-58
2023/08/16 06:29:26;;;;;;;7.85;5.70;;;;;;;26.76;55.35;100872.53;21084107;28;20055;-58
2023/08/16 06:39:28;;;;;;;6.82;6.22;;;;;;;26.82;55.32;100865.63;21077338;28;20048;-60
2023/08/16 06:49:30;;;;;;;8.35;5.95;;;;;;;26.89;55.17;100867.97;21082206;28;20040;-60
2023/08/16 06:59:31;;;;;;;6.75;5.45;;;;;;;26.84;55.23;100851.25;21081056;28;20029;-60
2023/08/16 07:09:33;;;;;;;6.68;6.03;;;;;;;26.89;55.00;100864.31;21004647;28;20098;-60
2023/08/16 07:19:34;;;;;;;6.65;6.05;;;;;;;27.03;55.02;100881.88;21067241;28;20052;-59
2023/08/16 07:29:36;;;;;;;8.98;6.10;;;;;;;27.06;54.83;100858.78;21082613;28;20548;-60
2023/08/16 07:39:37;;;;;;;6.50;5.82;;;;;;;27.14;54.98;100883.31;21080982;28;20125;-60
2023/08/16 07:49:38;;;;;;;6.80;6.13;;;;;;;27.20;54.80;100906.44;21080627;28;20052;-59
2023/08/16 07:59:40;;;;;;;6.57;5.97;;;;;;;27.21;54.72;100911.72;21079993;28;20089;-60
2023/08/16 08:09:41;;;;;;;6.18;5.68;;;;;;;27.26;54.60;100920.03;21080051;28;20097;-60
2023/08/16 08:19:43;;;;;;;6.35;5.35;;;;;;;27.30;54.69;100914.59;21079772;28;20032;-60
2023/08/16 08:29:45;;;;;;;5.80;5.10;;;;;;;27.31;54.54;100933.94;21078230;28;20044;-60
2023/08/16 08:39:46;;;;;;;5.65;5.15;;;;;;;27.34;54.63;100935.25;21077834;28;20040;-60
2023/08/16 08:49:50;;;;;;;6.63;6.03;;;;;;;27.40;54.59;100953.66;21074309;28;20044;-60
2023/08/16 08:59:53;;;;;;;5.93;5.32;;;;;;;27.41;54.36;100965.72;21074300;28;20340;-59
2023/08/16 09:09:55;;;;;;;5.78;5.28;;;;;;;27.44;54.64;100979.09;21074645;28;20492;-59
2023/08/16 09:20:05;;;;;;;5.90;5.25;;;;;;;27.46;54.62;100952.34;21093173;28;20044;-60
2023/08/16 09:30:12;;;;;;;5.28;4.78;;;;;;;27.47;54.59;100956.78;21092525;28;20040;-60
2023/08/16 09:40:15;;;;;;;5.57;5.07;;;;;;;27.50;54.53;100958.16;21091284;28;20048;-60
2023/08/16 09:50:21;;;;;;;6.30;5.20;;;;;;;27.50;54.72;100958.97;21090865;28;20036;-60
2023/08/16 10:00:30;;;;;;;5.63;5.10;;;;;;;27.54;54.67;100976.00;21089561;28;20032;-60
2023/08/16 10:10:32;;;;;;;5.53;5.03;;;;;;;27.54;54.51;100981.63;21088760;28;20044;-60
2023/08/16 10:20:36;;;;;;;5.18;4.68;;;;;;;27.55;54.62;101012.22;21087509;28;20037;-60
2023/08/16 10:30:39;;;;;;;5.25;4.68;;;;;;;27.56;54.58;101029.91;21087475;28;20105;-60
2023/08/16 10:40:40;;;;;;;5.45;4.95;;;;;;;27.59;53.15;101029.28;21087458;28;20048;-60
2023/08/16 10:50:42;;;;;;;4.97;4.35;;;;;;;26.97;51.22;101048.88;21077407;28;20040;-60
2023/08/16 11:00:43;;;;;;;4.60;4.15;;;;;;;26.66;50.50;101072.09;21035003;28;20496;-59
2023/08/16 11:10:45;;;;;;;4.13;3.72;;;;;;;26.36;49.54;101054.78;21081031;28;20040;-60
2023/08/16 11:20:47;;;;;;;5.00;3.75;;;;;;;26.22;49.70;101070.00;21083640;28;20472;-59
2023/08/16 11:30:58;;;;;;;4.45;4.05;;;;;;;26.09;49.77;101094.09;21083836;28;20556;-60
2023/08/16 11:41:03;;;;;;;4.60;4.20;;;;;;;25.97;49.03;101079.78;21081054;28;20036;-60
2023/08/16 11:51:04;;;;;;;4.47;4.07;;;;;;;25.89;49.00;101080.50;21079654;28;20048;-59
2023/08/16 12:01:11;;;;;;;4.32;3.92;;;;;;;25.82;49.34;101083.72;21077436;28;20044;-59
2023/08/16 12:11:12;;;;;;;4.47;4.07;;;;;;;25.73;48.83;101089.19;21080262;28;20040;-60
2023/08/16 12:21:13;;;;;;;4.80;4.10;;;;;;;25.17;48.85;101034.22;21078755;28;20549;-59
2023/08/16 12:31:15;;;;;;;4.72;3.90;;;;;;;25.62;49.38;101118.56;21076427;28;20063;-59
2023/08/16 12:41:16;;;;;;;7.15;4.20;;;;;;;25.55;49.05;101112.53;21076939;28;20093;-60
2023/08/16 12:51:20;;;;;;;6.35;3.70;;;;;;;25.51;48.85;101134.72;21075700;28;20060;-60
2023/08/16 13:01:24;;;;;;;4.40;3.97;;;;;;;25.44;49.33;101127.88;21075620;28;20437;-60
2023/08/16 13:11:26;;;;;;;6.50;4.13;;;;;;;25.42;49.31;101146.94;20996631;28;20094;-60
2023/08/16 13:21:29;;;;;;;5.85;4.90;;;;;;;25.40;49.51;101157.63;20993441;28;20040;-60
2023/08/16 13:31:30;;;;;;;9.25;3.70;;;;;;;25.39;49.45;101167.19;21029028;28;20024;-60
2023/08/16 13:41:31;;;;;;;5.45;3.88;;;;;;;25.21;48.80;101147.28;21068906;28;20453;-60
2023/08/16 13:51:33;;;;;;;4.30;3.75;;;;;;;25.25;48.95;101173.56;21074909;28;20086;-60
2023/08/16 14:01:35;;;;;;;4.88;3.63;;;;;;;25.27;49.20;101168.47;21069438;28;20553;-60
2023/08/16 14:11:36;;;;;;;4.88;4.15;;;;;;;25.21;48.80;101164.09;21030622;28;20044;-60
2023/08/16 14:21:37;;;;;;;4.18;3.78;;;;;;;25.19;49.12;101180.34;21045561;28;20117;-58
2023/08/16 14:31:39;;;;;;;4.15;3.75;;;;;;;25.18;49.09;101187.09;21087995;28;20043;-59
2023/08/16 14:41:40;;;;;;;4.18;3.60;;;;;;;25.15;48.96;101201.69;21086711;28;20113;-60
2023/08/16 14:51:41;;;;;;;3.78;3.42;;;;;;;25.06;48.75;101195.09;21085589;28;20040;-59
2023/08/16 15:01:43;;;;;;;4.20;3.80;;;;;;;25.12;49.50;101204.31;21025287;28;20063;-59
2023/08/16 15:11:45;;;;;;;5.63;4.53;;;;;;;25.10;49.58;101197.00;21045541;28;20487;-60
2023/08/16 15:21:47;;;;;;;4.28;3.88;;;;;;;25.07;49.36;101199.56;21084077;28;20036;-59
2023/08/16 15:31:49;;;;;;;4.45;4.05;;;;;;;25.07;49.57;101191.19;21092537;28;20548;-59
2023/08/16 15:41:50;;;;;;;5.03;3.83;;;;;;;25.18;53.54;101181.50;21081432;28;20540;-59
2023/08/16 15:51:52;;;;;;;5.05;3.90;;;;;;;25.55;54.72;101166.59;21081250;28;20028;-59
2023/08/16 16:01:53;;;;;;;5.10;4.60;;;;;;;25.83;54.38;101161.91;21077921;28;20051;-60
2023/08/16 16:11:55;;;;;;;5.47;4.05;;;;;;;26.02;54.17;101156.19;21067791;28;20055;-60
2023/08/16 16:21:56;;;;;;;7.10;4.50;;;;;;;26.15;53.81;101136.91;20997616;28;20045;-59
2023/08/16 16:31:57;;;;;;;6.53;4.20;;;;;;;26.35;53.69;101142.09;20994278;28;20044;-60
2023/08/16 16:42:01;;;;;;;5.47;4.07;;;;;;;26.43;53.67;101132.09;21031656;28;20071;-59
2023/08/16 16:52:02;;;;;;;5.10;4.60;;;;;;;26.54;53.93;101139.19;21068047;28;20062;-60
2023/08/16 17:02:04;;;;;;;4.78;4.38;;;;;;;26.63;53.86;101137.28;21076181;28;20077;-60
2023/08/16 17:12:07;;;;;;;4.50;4.10;;;;;;;26.71;53.94;101128.13;21046043;28;20036;-59
2023/08/16 17:22:08;;;;;;;4.93;4.13;;;;;;;26.74;54.02;101121.88;21075386;28;20450;-60
2023/08/16 17:32:10;;;;;;;7.43;4.18;;;;;;;26.86;54.18;101141.81;21078402;28;20028;-59
2023/08/16 17:42:11;;;;;;;6.65;4.63;;;;;;;26.95;53.62;101127.84;21084306;28;20553;-59
2023/08/16 17:52:13;;;;;;;5.53;4.40;;;;;;;27.04;53.69;101141.97;21078513;28;20040;-59
2023/08/16 18:02:14;;;;;;;5.25;4.18;;;;;;;27.10;53.53;101129.47;21089593;28;20486;-59
2023/08/16 18:12:15;;;;;;;5.50;3.97;;;;;;;26.98;53.24;101101.09;21088515;28;20364;-57
2023/08/16 18:22:17;;;;;;;4.97;4.50;;;;;;;27.19;53.17;101116.31;21087917;28;20043;-60
2023/08/16 18:32:21;;;;;;;4.80;4.30;;;;;;;27.27;52.87;101107.13;21086584;28;20256;-59
2023/08/16 18:42:25;;;;;;;5.00;4.20;;;;;;;27.34;52.79;101118.72;21086594;28;20044;-60
2023/08/16 18:52:29;;;;;;;5.20;4.13;;;;;;;27.44;52.66;101125.22;21086470;28;20437;-60
2023/08/16 19:02:30;;;;;;;4.43;4.03;;;;;;;27.51;52.36;101128.44;21085154;28;20438;-60
2023/08/16 19:12:31;;;;;;;4.13;3.63;;;;;;;27.30;50.81;101123.31;21013563;28;20495;-60
2023/08/16 19:22:33;;;;;;;4.65;4.07;;;;;;;26.94;50.74;101130.94;20999721;28;20109;-58
2023/08/16 19:32:37;;;;;;;4.53;3.42;;;;;;;26.69;50.47;101122.00;20998658;28;20553;-59
2023/08/16 19:42:38;;;;;;;3.60;3.30;;;;;;;26.47;49.98;101127.53;20997323;28;20556;-59
2023/08/16 19:52:39;;;;;;;3.75;3.20;;;;;;;26.33;49.86;101119.94;20996763;28;20040;-59
2023/08/16 20:02:41;;;;;;;3.80;3.45;;;;;;;26.33;49.95;101116.31;20996155;28;20036;-59
2023/08/16 20:12:44;;;;;;;3.90;3.50;;;;;;;26.21;50.20;101114.06;20996001;28;20102;-59
2023/08/16 20:22:45;;;;;;;3.30;3.00;;;;;;;26.18;50.32;101120.28;20995513;28;20032;-59
2023/08/16 20:32:47;;;;;;;3.58;3.28;;;;;;;26.11;49.96;101122.66;20997816;28;20045;-59
2023/08/16 20:42:48;;;;;;;3.40;3.10;;;;;;;26.00;50.18;101118.41;20993470;28;20446;-59
2023/08/16 20:52:50;;;;;;;3.47;3.17;;;;;;;26.01;49.89;101114.47;20993360;28;20075;-60
2023/08/16 21:02:51;;;;;;;3.60;3.30;;;;;;;25.99;50.08;101122.38;20996010;28;20037;-59
2023/08/16 21:12:52;;;;;;;3.42;3.05;;;;;;;25.88;48.49;101126.50;21015008;28;20102;-59
2023/08/16 21:22:54;;;;;;;3.05;2.83;;;;;;;25.89;50.12;101116.94;21020074;28;20033;-59
2023/08/16 21:32:58;;;;;;;3.33;3.03;;;;;;;25.84;50.28;101101.91;21020074;28;20040;-59
2023/08/16 21:42:59;;;;;;;3.33;2.78;;;;;;;25.81;50.15;101101.69;21019210;28;20045;-59
2023/08/16 21:53:03;;;;;;;3.40;3.10;;;;;;;25.76;50.40;101091.41;21018571;28;20049;-59
2023/08/16 22:03:07;;;;;;;3.15;2.85;;;;;;;25.75;50.21;101095.34;21018252;28;20098;-60
2023/08/16 22:13:10;;;;;;;3.03;2.72;;;;;;;25.71;50.07;101111.09;21018930;28;20106;-60
2023/08/16 22:23:11;;;;;;;3.55;3.00;;;;;;;25.71;50.01;101113.91;21008366;28;20041;-59
2023/08/16 22:33:13;;;;;;;3.10;2.90;;;;;;;25.66;50.22;101119.63;21066466;28;20040;-59
2023/08/16 22:43:14;;;;;;;3.53;2.85;;;;;;;25.58;50.63;101115.53;21084875;28;20036;-61
2023/08/16 22:53:15;;;;;;;2.65;2.45;;;;;;;25.63;50.14;101122.19;21065163;28;20048;-62
2023/08/16 23:03:19;;;;;;;3.35;2.67;;;;;;;25.69;50.31;101141.41;21076168;28;20032;-60
2023/08/16 23:13:23;;;;;;;2.97;2.78;;;;;;;25.71;50.15;101155.94;21077710;28;20419;-62
2023/08/16 23:23:25;;;;;;;3.00;2.80;;;;;;;25.68;49.91;101167.75;21066189;28;20445;-60
2023/08/16 23:33:28;;;;;;;6.43;3.22;;;;;;;25.65;49.74;101173.97;21064408;28;20116;-60
2023/08/16 23:43:29;;;;;;;3.78;3.45;;;;;;;25.85;54.42;101178.44;21077155;28;20040;-61
2023/08/16 23:53:30;;;;;;;4.10;3.20;;;;;;;26.12;54.34;101200.06;21077978;28;20109;-59
